Time;durP1;ratioP1;P1;durP2;ratioP2;P2;SDS_P1;SDS_P2;PMS_P1;PMS_P2;Temp;Humidity;BMP_temperature;BMP_pressure;BME280_temperature;BME280_humidity;BME280_pressure;Samples;Min_cycle;Max_cycle;Signal;HPM_P1;HPM_P2
2023/01/28 00:01:43;;;;;;;;;;;;;;;25.25;37.13;94332.34;5043449;28;9177;-61
2023/01/28 00:07:57;;;;;;;;;;;;;;;25.25;36.40;94331.63;5041938;28;9302;-61
2023/01/28 00:10:32;;;;;;;;;;;;;;;25.25;36.22;94324.09;5043255;28;7060;-62
2023/01/28 00:13:08;;;;;;;;;;;;;;;25.24;37.08;94325.34;5072873;28;7328;-61
2023/01/28 00:15:57;;;;;;;;;;;;;;;25.24;36.63;94313.59;5043387;28;8570;-61
2023/01/28 00:18:26;;;;;;;;;;;;;;;25.25;36.17;94320.59;5058541;28;9130;-61
2023/01/28 00:21:12;;;;;;;;;;;;;;;25.25;36.61;94317.84;5048555;28;7324;-61
2023/01/28 00:23:54;;;;;;;;;;;;;;;25.25;36.96;94318.56;5050322;28;8970;-61
2023/01/28 00:26:22;;;;;;;;;;;;;;;25.25;36.14;94321.31;5039910;28;7134;-61
2023/01/28 00:28:48;;;;;;;;;;;;;;;25.24;36.69;94314.34;5051782;28;7361;-61
2023/01/28 00:31:16;;;;;;;;;;;;;;;25.25;36.90;94324.09;5052455;28;8695;-61
2023/01/28 00:33:49;;;;;;;;;;;;;;;25.24;36.83;94313.59;5043323;28;7051;-61
2023/01/28 00:36:42;;;;;;;;;;;;;;;25.24;37.15;94319.09;5043439;28;9396;-61
2023/01/28 00:39:26;;;;;;;;;;;;;;;25.24;36.97;94317.09;5078333;28;8073;-62
2023/01/28 00:41:54;;;;;;;;;;;;;;;25.23;36.44;94309.31;5047049;28;9221;-61
2023/01/28 00:44:32;;;;;;;;;;;;;;;25.25;36.72;94310.31;5060363;28;9052;-62
2023/01/28 00:46:59;;;;;;;;;;;;;;;25.24;36.36;94308.09;5059755;28;7262;-61
2023/01/28 00:49:34;;;;;;;;;;;;;;;25.24;36.59;94313.59;5044346;28;7212;-61
2023/01/28 00:52:12;;;;;;;;;;;;;;;25.25;36.17;94320.59;5046674;28;8976;-61
2023/01/28 00:54:49;;;;;;;;;;;;;;;25.26;36.11;94311.81;5079421;28;7247;-62
2023/01/28 00:57:17;;;;;;;;;;;;;;;25.24;36.04;94310.84;5084538;28;7531;-61
2023/01/28 01:00:31;;;;;;;;;;;;;;;25.25;37.09;94309.59;5060090;28;7056;-62
2023/01/28 01:03:27;;;;;;;;;;;;;;;25.27;36.21;94304.31;4969472;28;7206;-62
2023/01/28 01:05:57;;;;;;;;;;;;;;;25.24;36.45;94308.09;4956000;28;7001;-62
2023/01/28 01:08:41;;;;;;;;;;;;;;;25.26;36.28;94311.06;4957071;28;7024;-61
2023/01/28 01:11:10;;;;;;;;;;;;;;;25.26;36.29;94311.06;4953874;28;9523;-62
2023/01/28 01:13:58;;;;;;;;;;;;;;;25.24;36.21;94314.34;4971493;28;9010;-61
2023/01/28 01:16:31;;;;;;;;;;;;;;;25.27;36.80;94318.09;4973620;28;8176;-61
2023/01/28 01:19:04;;;;;;;;;;;;;;;25.27;36.09;94321.56;4972538;28;7055;-61
2023/01/28 01:21:31;;;;;;;;;;;;;;;25.26;36.77;94322.09;4970493;28;7326;-61
2023/01/28 01:23:58;;;;;;;;;;;;;;;25.27;36.56;94323.59;4939095;28;9216;-61
2023/01/28 01:26:26;;;;;;;;;;;;;;;25.25;36.70;94326.84;4942883;28;6978;-61
2023/01/28 01:28:52;;;;;;;;;;;;;;;25.24;37.03;94327.34;4960456;28;7911;-62
2023/01/28 01:31:20;;;;;;;;;;;;;;;25.26;36.34;94325.59;4970487;28;7195;-62
2023/01/28 01:33:49;;;;;;;;;;;;;;;25.25;36.51;94326.09;4968105;28;8603;-61
2023/01/28 01:36:18;;;;;;;;;;;;;;;25.25;36.62;94323.34;4947667;28;7673;-62
2023/01/28 01:38:58;;;;;;;;;;;;;;;25.25;36.94;94317.84;4952874;28;8296;-61
2023/01/28 01:41:30;;;;;;;;;;;;;;;25.23;36.17;94317.59;5081399;28;7148;-61
2023/01/28 01:44:41;;;;;;;;;;;;;;;25.26;36.11;94317.34;5051101;28;7852;-61
2023/01/28 01:47:08;;;;;;;;;;;;;;;25.27;35.97;94315.34;5073796;28;7722;-61
2023/01/28 01:49:34;;;;;;;;;;;;;;;25.26;37.05;94316.56;5058971;28;7119;-61
2023/01/28 01:52:18;;;;;;;;;;;;;;;25.27;36.40;94315.34;5045268;28;8931;-62
2023/01/28 01:55:00;;;;;;;;;;;;;;;25.27;36.61;94320.84;5055925;28;9070;-61
2023/01/28 01:57:48;;;;;;;;;;;;;;;25.28;36.48;94319.56;5081704;28;10109;-61
2023/01/28 02:00:30;;;;;;;;;;;;;;;25.28;36.96;94316.81;5047875;28;9378;-61
2023/01/28 02:03:00;;;;;;;;;;;;;;;25.28;36.23;94325.81;5041744;28;9254;-61
2023/01/28 02:05:28;;;;;;;;;;;;;;;25.29;35.98;94318.31;5048481;28;8854;-61
2023/01/28 02:11:12;;;;;;;;;;;;;;;25.28;36.29;94325.81;5047374;28;7201;-61
2023/01/28 02:13:47;;;;;;;;;;;;;;;25.27;36.48;94313.31;4981771;28;9075;-61
2023/01/28 02:16:43;;;;;;;;;;;;;;;25.30;36.64;94317.81;4969908;28;6937;-61
2023/01/28 02:19:54;;;;;;;;;;;;;;;25.30;36.09;94322.56;4965335;28;7038;-61
2023/01/28 02:22:35;;;;;;;;;;;;;;;25.30;37.02;94317.03;4927063;28;8988;-61
2023/01/28 02:25:42;;;;;;;;;;;;;;;25.28;36.66;94308.56;4930090;28;9440;-61
2023/01/28 02:28:29;;;;;;;;;;;;;;;25.28;36.91;94319.56;4949606;28;7641;-61
2023/01/28 02:31:29;;;;;;;;;;;;;;;25.28;36.04;94314.81;4923547;28;8451;-61
2023/01/28 02:34:17;;;;;;;;;;;;;;;25.27;35.75;94310.56;4947682;28;9133;-61
2023/01/28 02:37:07;;;;;;;;;;;;;;;25.27;36.08;94318.09;4932435;28;7225;-61
2023/01/28 02:39:41;;;;;;;;;;;;;;;25.27;36.83;94316.06;4929539;28;7422;-61
2023/01/28 02:42:19;;;;;;;;;;;;;;;25.28;36.88;94317.56;4947379;28;7031;-61
2023/01/28 02:44:54;;;;;;;;;;;;;;;25.29;36.25;94321.06;4939714;28;7080;-61
2023/01/28 02:50:14;;;;;;;;;;;;;;;25.27;36.65;94323.59;4972187;28;8285;-61
2023/01/28 02:56:28;;;;;;;;;;;;;;;25.27;36.23;94318.81;4998621;28;9300;-61
2023/01/28 02:59:29;;;;;;;;;;;;;;;25.30;36.03;94328.06;5034007;28;7385;-61
2023/01/28 03:02:07;;;;;;;;;;;;;;;25.28;36.55;94328.56;5034392;28;7018;-61
2023/01/28 03:05:04;;;;;;;;;;;;;;;25.29;36.91;94332.09;5040944;28;9075;-61
2023/01/28 03:07:39;;;;;;;;;;;;;;;25.29;36.61;94327.31;5033640;28;9046;-61
2023/01/28 03:10:11;;;;;;;;;;;;;;;25.28;35.99;94325.81;5041050;28;8911;-61
2023/01/28 03:38:57;;;;;;;;;;;;;;;25.25;36.30;94321.31;5044773;28;7440;-61
2023/01/28 03:41:25;;;;;;;;;;;;;;;25.22;36.52;94325.13;5031451;28;7141;-61
2023/01/28 03:43:54;;;;;;;;;;;;;;;25.28;36.71;94330.56;5036122;28;7285;-61
2023/01/28 03:46:22;;;;;;;;;;;;;;;25.28;36.68;94331.34;5043326;28;7224;-61
2023/01/28 03:48:48;;;;;;;;;;;;;;;25.28;36.50;94336.84;5038224;28;7186;-61
2023/01/28 03:51:15;;;;;;;;;;;;;;;25.29;36.24;94332.09;5029887;28;7031;-62
2023/01/28 03:53:42;;;;;;;;;;;;;;;25.29;35.99;94335.56;5044446;28;9561;-62
2023/01/28 03:56:17;;;;;;;;;;;;;;;25.26;37.00;94333.84;5058047;28;7282;-62
2023/01/28 03:58:51;;;;;;;;;;;;;;;25.28;36.51;94347.84;5058121;28;7049;-62
2023/01/28 04:01:18;;;;;;;;;;;;;;;25.29;36.83;94343.09;5042165;28;7323;-62
2023/01/28 04:03:44;;;;;;;;;;;;;;;25.28;36.55;94347.09;5043998;28;7139;-62
2023/01/28 04:06:12;;;;;;;;;;;;;;;25.25;36.65;94337.84;5044647;28;8988;-62
2023/01/28 04:08:47;;;;;;;;;;;;;;;25.29;36.02;94338.31;5067525;28;7293;-62
2023/01/28 04:11:18;;;;;;;;;;;;;;;25.29;36.99;94338.31;5030331;28;9025;-62
2023/01/28 04:13:46;;;;;;;;;;;;;;;25.30;36.70;94336.31;5038433;28;9270;-62
2023/01/28 04:16:16;;;;;;;;;;;;;;;25.30;36.39;94336.31;5045601;28;9013;-62
2023/01/28 04:18:46;;;;;;;;;;;;;;;25.29;36.34;94337.59;5043403;28;7300;-62
2023/01/28 04:21:12;;;;;;;;;;;;;;;25.30;36.63;94336.31;5036183;28;9358;-62
2023/01/28 04:23:40;;;;;;;;;;;;;;;25.30;36.73;94339.06;5068219;28;7151;-62
2023/01/28 04:26:08;;;;;;;;;;;;;;;25.30;36.40;94350.84;5058139;28;9032;-62
2023/01/28 04:28:36;;;;;;;;;;;;;;;25.30;36.78;94339.06;5034101;28;7300;-62
2023/01/28 04:31:02;;;;;;;;;;;;;;;25.29;36.15;94346.56;5050218;28;7090;-62
2023/01/28 04:33:28;;;;;;;;;;;;;;;25.30;36.24;94355.59;5041710;28;9432;-61
2023/01/28 04:35:54;;;;;;;;;;;;;;;25.30;36.90;94355.59;5038811;28;8930;-62
2023/01/28 04:38:23;;;;;;;;;;;;;;;25.32;36.37;94359.34;5053362;28;9010;-62
2023/01/28 04:40:53;;;;;;;;;;;;;;;25.30;36.46;94347.31;5036020;28;9213;-62
2023/01/28 04:43:20;;;;;;;;;;;;;;;25.27;36.44;94343.59;5068005;28;9074;-61
2023/01/28 04:45:47;;;;;;;;;;;;;;;25.32;36.28;94364.09;5037834;28;7013;-61
2023/01/28 04:48:19;;;;;;;;;;;;;;;25.32;36.13;94355.81;5048453;28;7014;-61
2023/01/28 04:50:47;;;;;;;;;;;;;;;25.31;37.01;94357.09;5052472;28;6860;-61
2023/01/28 04:53:13;;;;;;;;;;;;;;;25.28;36.26;94353.34;5049892;28;7249;-61
2023/01/28 04:55:41;;;;;;;;;;;;;;;25.29;36.34;94354.84;5049786;28;8417;-61
2023/01/28 04:58:11;;;;;;;;;;;;;;;25.29;36.13;94360.34;5040071;28;7166;-61
2023/01/28 05:00:37;;;;;;;;;;;;;;;25.26;36.63;94355.88;5046918;28;7267;-61
2023/01/28 05:03:05;;;;;;;;;;;;;;;25.31;36.47;94371.63;5082032;28;7423;-61
2023/01/28 05:05:31;;;;;;;;;;;;;;;25.28;36.36;94364.38;5041479;28;9059;-61
2023/01/28 05:07:58;;;;;;;;;;;;;;;25.31;36.65;94368.09;5049397;28;9247;-61
2023/01/28 05:10:26;;;;;;;;;;;;;;;25.30;36.29;94370.09;5051374;28;7042;-61
2023/01/28 05:12:52;;;;;;;;;;;;;;;25.32;36.30;94369.59;5063694;28;7062;-62
2023/01/28 05:15:23;;;;;;;;;;;;;;;25.30;36.40;94361.09;5042955;28;9179;-61
2023/01/28 05:17:49;;;;;;;;;;;;;;;25.32;36.15;94364.84;5037323;28;9016;-61
2023/01/28 05:20:15;;;;;;;;;;;;;;;25.31;36.04;94363.34;5058736;28;7297;-62
2023/01/28 05:22:41;;;;;;;;;;;;;;;25.28;36.62;94363.59;5054887;28;7052;-61
2023/01/28 05:25:10;;;;;;;;;;;;;;;25.31;36.30;94370.88;5045498;28;7348;-62
2023/01/28 05:27:41;;;;;;;;;;;;;;;25.31;36.92;94376.38;5062141;28;8802;-62
2023/01/28 05:30:08;;;;;;;;;;;;;;;25.31;36.97;94379.13;5080029;28;9379;-62
2023/01/28 05:32:34;;;;;;;;;;;;;;;25.29;36.53;94376.84;5040539;28;8303;-62
2023/01/28 05:35:46;;;;;;;;;;;;;;;25.30;36.16;94383.88;5037169;28;7262;-62
2023/01/28 05:38:21;;;;;;;;;;;;;;;25.30;36.85;94383.13;4997682;28;7076;-61
2023/01/28 05:40:48;;;;;;;;;;;;;;;25.30;35.94;94383.88;5011931;28;7291;-61
2023/01/28 05:43:25;;;;;;;;;;;;;;;25.29;36.08;94381.63;4985943;28;8674;-61
2023/01/28 05:45:57;;;;;;;;;;;;;;;25.30;36.81;94388.63;4991662;28;7271;-62
2023/01/28 05:48:23;;;;;;;;;;;;;;;25.30;36.48;94389.38;5011360;28;7127;-61
2023/01/28 05:51:00;;;;;;;;;;;;;;;25.29;36.54;94387.88;4994991;28;9046;-61
2023/01/28 05:53:52;;;;;;;;;;;;;;;25.29;37.05;94385.13;5010913;28;9778;-61
2023/01/28 05:56:19;;;;;;;;;;;;;;;25.30;36.54;94394.13;4993382;28;8921;-61
2023/01/28 05:58:47;;;;;;;;;;;;;;;25.31;36.31;94392.88;4985527;28;9307;-61
2023/01/28 06:01:13;;;;;;;;;;;;;;;25.29;36.06;94393.38;4994562;28;7277;-61
2023/01/28 06:03:40;;;;;;;;;;;;;;;25.31;36.40;94395.63;5007761;28;9097;-61
2023/01/28 06:06:07;;;;;;;;;;;;;;;25.30;36.72;94400.38;5015213;28;7536;-62
2023/01/28 06:09:08;;;;;;;;;;;;;;;25.32;36.56;94402.63;5009015;28;8794;-61
2023/01/28 06:11:49;;;;;;;;;;;;;;;25.31;36.67;94412.91;4936983;28;7280;-61
2023/01/28 06:14:19;;;;;;;;;;;;;;;25.30;36.54;94407.91;4959297;28;6861;-61
2023/01/28 06:16:52;;;;;;;;;;;;;;;25.31;36.08;94406.66;4998655;28;9288;-61
2023/01/28 06:19:36;;;;;;;;;;;;;;;25.31;36.42;94409.41;4992801;28;9058;-61
2023/01/28 06:22:05;;;;;;;;;;;;;;;25.31;36.85;94412.16;4988161;28;9452;-61
2023/01/28 06:24:33;;;;;;;;;;;;;;;25.30;36.43;94416.16;4999182;28;7506;-62
2023/01/28 06:27:01;;;;;;;;;;;;;;;25.31;36.92;94420.41;4996697;28;9086;-62
2023/01/28 06:29:27;;;;;;;;;;;;;;;25.32;36.40;94419.91;5007043;28;7257;-61
2023/01/28 06:31:55;;;;;;;;;;;;;;;25.32;36.89;94419.16;4991718;28;7267;-61
2023/01/28 06:34:42;;;;;;;;;;;;;;;25.30;36.63;94421.66;4981207;28;8988;-61
2023/01/28 06:37:34;;;;;;;;;;;;;;;25.32;36.00;94413.63;4992346;28;7200;-61
2023/01/28 06:40:12;;;;;;;;;;;;;;;25.32;36.89;94419.16;5003736;28;7305;-61
2023/01/28 06:42:43;;;;;;;;;;;;;;;25.33;36.16;94415.16;4992938;28;7486;-61
2023/01/28 06:45:21;;;;;;;;;;;;;;;25.32;36.54;94419.16;4990278;28;7277;-61
2023/01/28 06:47:59;;;;;;;;;;;;;;;25.31;36.98;94414.91;5037757;28;9383;-61
2023/01/28 06:50:27;;;;;;;;;;;;;;;25.30;36.67;94421.66;5055212;28;7468;-61
2023/01/28 06:53:02;;;;;;;;;;;;;;;25.31;36.29;94420.41;5048568;28;7304;-61
2023/01/28 06:55:40;;;;;;;;;;;;;;;25.31;36.73;94423.16;5050225;28;8991;-61
2023/01/28 06:58:21;;;;;;;;;;;;;;;25.30;36.35;94416.16;5021917;28;7552;-61
2023/01/28 07:01:10;;;;;;;;;;;;;;;25.29;37.08;94422.94;5045130;28;7217;-61
2023/01/28 07:04:07;;;;;;;;;;;;;;;25.30;37.07;94421.66;5053150;28;7881;-61
2023/01/28 07:06:53;;;;;;;;;;;;;;;25.31;36.44;94421.16;5029110;28;9515;-61
2023/01/28 07:09:30;;;;;;;;;;;;;;;25.31;36.62;94431.44;5025486;28;9103;-61
2023/01/28 07:12:05;;;;;;;;;;;;;;;25.29;37.11;94437.41;5028730;28;8968;-61
2023/01/28 07:14:33;;;;;;;;;;;;;;;25.31;36.67;94426.69;5033694;28;9423;-61
2023/01/28 07:17:00;;;;;;;;;;;;;;;25.31;36.93;94423.16;5013883;28;8991;-61
2023/01/28 07:19:35;;;;;;;;;;;;;;;25.30;36.97;94430.66;5029059;28;8885;-61
2023/01/28 07:22:36;;;;;;;;;;;;;;;25.32;36.39;94438.41;5032299;28;7036;-61
2023/01/28 07:25:14;;;;;;;;;;;;;;;25.31;36.58;94440.44;4986281;28;7058;-61
2023/01/28 07:27:49;;;;;;;;;;;;;;;25.32;36.90;94438.41;4989541;28;7038;-61
2023/01/28 07:30:19;;;;;;;;;;;;;;;25.31;36.89;94443.19;4972777;28;9139;-61
2023/01/28 07:32:46;;;;;;;;;;;;;;;25.30;37.24;94438.94;4974215;28;7027;-61
2023/01/28 07:35:49;;;;;;;;;;;;;;;25.31;36.97;94451.47;4974425;28;9468;-61
2023/01/28 07:38:16;;;;;;;;;;;;;;;25.27;36.55;94444.72;4916516;29;9005;-61
2023/01/28 07:40:57;;;;;;;;;;;;;;;25.31;37.26;94451.47;4928149;29;7315;-62
2023/01/28 07:43:28;;;;;;;;;;;;;;;25.31;36.67;94459.72;4935321;28;9221;-62
2023/01/28 07:45:55;;;;;;;;;;;;;;;25.33;36.97;94462.72;4939451;29;8734;-62
2023/01/28 07:48:21;;;;;;;;;;;;;;;25.31;36.80;94456.97;4945374;28;7422;-62
2023/01/28 07:50:50;;;;;;;;;;;;;;;25.30;37.03;94458.22;4929780;29;9064;-63
2023/01/28 07:53:20;;;;;;;;;;;;;;;25.31;37.46;94467.22;4924874;28;7252;-61
2023/01/28 07:55:46;;;;;;;;;;;;;;;25.33;37.56;94473.72;4924539;29;7448;-61
2023/01/28 07:58:15;;;;;;;;;;;;;;;25.34;37.33;94472.44;4914218;28;7265;-61
2023/01/28 08:00:46;;;;;;;;;;;;;;;25.38;37.61;94472.19;4951721;28;9365;-61
2023/01/28 08:03:15;;;;;;;;;;;;;;;25.40;36.89;94477.94;4947600;28;8739;-61
2023/01/28 08:05:56;;;;;;;;;;;;;;;25.42;36.68;94476.19;4946455;28;7007;-62
2023/01/28 08:08:35;;;;;;;;;;;;;;;25.43;37.05;94479.69;4955598;28;8720;-61
2023/01/28 08:11:09;;;;;;;;;;;;;;;25.44;36.27;94481.22;4951325;28;7240;-61
2023/01/28 08:13:41;;;;;;;;;;;;;;;25.42;36.86;94484.44;5040647;28;9068;-61
2023/01/28 08:16:14;;;;;;;;;;;;;;;25.45;36.40;94492.97;5047255;28;7222;-60
2023/01/28 08:18:42;;;;;;;;;;;;;;;25.45;37.30;94490.94;5071342;28;8902;-61
2023/01/28 08:21:08;;;;;;;;;;;;;;;25.46;37.10;94483.44;5040942;28;7356;-61
2023/01/28 08:23:34;;;;;;;;;;;;;;;25.45;36.65;94490.94;5045350;28;8680;-61
2023/01/28 08:26:30;;;;;;;;;;;;;;;25.47;36.95;94491.19;5052501;28;9053;-62
2023/01/28 08:28:55;;;;;;;;;;;;;;;25.44;37.25;94494.97;5071155;28;7090;-62
2023/01/28 08:31:23;;;;;;;;;;;;;;;25.45;36.64;94498.50;5048186;28;7018;-62
2023/01/28 08:33:57;;;;;;;;;;;;;;;25.41;36.85;94490.44;5049228;28;7259;-62
2023/01/28 08:36:50;;;;;;;;;;;;;;;25.41;36.87;94504.22;5045080;28;7036;-62
2023/01/28 08:39:26;;;;;;;;;;;;;;;25.40;37.29;94505.47;5050377;28;9065;-62
2023/01/28 08:42:01;;;;;;;;;;;;;;;25.43;36.63;94505.22;5051477;28;9404;-62
2023/01/28 08:45:00;;;;;;;;;;;;;;;25.48;36.88;94513.97;5083913;28;7158;-62
2023/01/28 08:47:53;;;;;;;;;;;;;;;25.47;36.06;94515.25;5069155;28;7036;-61
2023/01/28 08:50:33;;;;;;;;;;;;;;;25.47;36.76;94513.22;5044246;28;7180;-61
2023/01/28 08:53:02;;;;;;;;;;;;;;;25.45;37.01;94515.00;5048119;28;9289;-62
2023/01/28 08:55:33;;;;;;;;;;;;;;;25.48;36.45;94522.25;5042970;28;8827;-62
2023/01/28 08:58:07;;;;;;;;;;;;;;;25.48;36.37;94519.47;5035133;28;9198;-62
2023/01/28 09:00:34;;;;;;;;;;;;;;;25.51;36.00;94524.00;5061073;28;9066;-62
2023/01/28 09:03:01;;;;;;;;;;;;;;;25.52;36.74;94528.97;5061872;28;7032;-62
2023/01/28 09:05:28;;;;;;;;;;;;;;;25.58;36.63;94528.97;5049053;28;9390;-61
2023/01/28 09:07:55;;;;;;;;;;;;;;;25.59;36.82;94531.22;5043891;28;9036;-61
2023/01/28 09:10:21;;;;;;;;;;;;;;;25.63;36.47;94526.19;5059953;28;7298;-61
2023/01/28 09:12:48;;;;;;;;;;;;;;;25.64;36.20;94533.19;5054747;28;7086;-61
2023/01/28 09:15:14;;;;;;;;;;;;;;;25.68;36.12;94533.69;5073587;28;8800;-61
2023/01/28 09:17:40;;;;;;;;;;;;;;;25.71;36.79;94531.94;5042552;28;7252;-61
2023/01/28 09:20:07;;;;;;;;;;;;;;;25.72;36.53;94534.16;5039956;28;8991;-62
2023/01/28 09:22:33;;;;;;;;;;;;;;;25.74;35.98;94537.16;5059029;28;7016;-62
2023/01/28 09:25:01;;;;;;;;;;;;;;;25.74;36.71;94542.66;5039230;28;7030;-61
2023/01/28 09:27:30;;;;;;;;;;;;;;;25.73;36.95;94541.16;5039288;28;8725;-62
2023/01/28 09:29:56;;;;;;;;;;;;;;;25.75;36.76;94538.63;5046802;28;7207;-61
2023/01/28 09:32:23;;;;;;;;;;;;;;;25.74;36.26;94539.91;5039777;28;7455;-62
2023/01/28 09:34:50;;;;;;;;;;;;;;;25.77;36.45;94540.91;5048856;28;7072;-62
2023/01/28 09:37:18;;;;;;;;;;;;;;;25.74;36.17;94545.41;5043940;28;7203;-62
2023/01/28 09:39:44;;;;;;;;;;;;;;;25.75;36.13;94538.63;5043743;28;7041;-62
2023/01/28 09:42:57;;;;;;;;;;;;;;;25.71;36.88;94543.66;5068254;28;8384;-63
2023/01/28 09:46:17;;;;;;;;;;;;;;;25.61;36.82;94549.97;5045619;28;9617;-63
2023/01/28 09:49:09;;;;;;;;;;;;;;;25.54;36.00;94548.50;4984974;28;7260;-63
2023/01/28 09:52:03;;;;;;;;;;;;;;;25.50;36.61;94550.78;4980973;28;6976;-63
2023/01/28 09:54:58;;;;;;;;;;;;;;;25.47;37.55;94543.50;4975805;28;7695;-62
2023/01/28 09:57:38;;;;;;;;;;;;;;;25.43;37.29;94554.03;4971045;28;9293;-63
2023/01/28 10:00:50;;;;;;;;;;;;;;;25.42;37.02;94545.03;4990819;28;8698;-63
2023/01/28 10:03:28;;;;;;;;;;;;;;;25.39;37.47;94551.53;4988613;28;9875;-63
2023/01/28 10:06:15;;;;;;;;;;;;;;;25.37;37.59;94545.03;4991262;28;9011;-63
2023/01/28 10:09:30;;;;;;;;;;;;;;;25.37;38.09;94543.03;4991507;28;9054;-62
2023/01/28 10:12:33;;;;;;;;;;;;;;;25.35;38.31;94553.06;4985056;28;7011;-62
2023/01/28 10:15:26;;;;;;;;;;;;;;;25.36;37.53;94541.53;4988747;28;7932;-62
2023/01/28 10:18:16;;;;;;;;;;;;;;;25.38;37.21;94543.78;4990778;28;8128;-62
2023/01/28 10:21:06;;;;;;;;;;;;;;;25.37;37.93;94542.28;4972712;28;9146;-62
2023/01/28 10:24:00;;;;;;;;;;;;;;;25.37;37.47;94529.28;4979650;28;8622;-62
2023/01/28 10:26:39;;;;;;;;;;;;;;;25.37;37.47;94539.53;5042907;28;7285;-62
2023/01/28 10:29:18;;;;;;;;;;;;;;;25.39;37.65;94535.00;5072706;28;8801;-62
2023/01/28 10:32:17;;;;;;;;;;;;;;;25.41;37.88;94531.75;5041678;28;9299;-61
2023/01/28 10:35:38;;;;;;;;;;;;;;;25.39;38.33;94528.75;5044213;28;9330;-61
2023/01/28 10:38:13;;;;;;;;;;;;;;;25.38;37.47;94519.00;5046059;28;7186;-60
2023/01/28 10:40:46;;;;;;;;;;;;;;;25.38;37.24;94511.47;5049590;28;7466;-61
2023/01/28 10:43:25;;;;;;;;;;;;;;;25.40;37.88;94522.00;5051372;28;8262;-62
2023/01/28 10:46:21;;;;;;;;;;;;;;;25.42;37.21;94522.28;5047325;28;9012;-61
2023/01/28 10:49:22;;;;;;;;;;;;;;;25.42;37.85;94514.75;5060192;28;9294;-61
2023/01/28 10:51:57;;;;;;;;;;;;;;;25.42;37.70;94520.25;5050453;28;7254;-61
2023/01/28 10:54:38;;;;;;;;;;;;;;;25.42;37.86;94511.25;5044307;28;7514;-62
2023/01/28 10:57:19;;;;;;;;;;;;;;;25.42;37.77;94516.75;5058630;28;7882;-61
2023/01/28 11:00:29;;;;;;;;;;;;;;;25.43;37.20;94519.00;5044126;28;7005;-61
2023/01/28 11:03:03;;;;;;;;;;;;;;;25.42;37.33;94525.75;5073455;28;8342;-61
2023/01/28 11:05:56;;;;;;;;;;;;;;;25.44;37.89;94525.28;5040929;28;8995;-61
2023/01/28 11:08:27;;;;;;;;;;;;;;;25.43;37.62;94526.50;5063749;28;7101;-62
2023/01/28 11:10:56;;;;;;;;;;;;;;;25.45;38.01;94521.25;5041922;28;7304;-62
2023/01/28 11:13:27;;;;;;;;;;;;;;;25.44;37.22;94522.50;5040889;28;7442;-62
2023/01/28 11:16:15;;;;;;;;;;;;;;;25.43;37.43;94537.53;5048560;28;9144;-62
2023/01/28 11:19:10;;;;;;;;;;;;;;;25.42;37.25;94528.50;5041969;28;9051;-62
2023/01/28 11:21:37;;;;;;;;;;;;;;;25.41;37.92;94527.00;5045836;28;8224;-62
2023/01/28 11:24:16;;;;;;;;;;;;;;;25.41;37.72;94526.25;5041813;28;7513;-62
2023/01/28 11:26:48;;;;;;;;;;;;;;;25.42;37.88;94530.53;5044112;28;7245;-62
2023/01/28 11:29:24;;;;;;;;;;;;;;;25.42;37.27;94536.03;5042550;28;9074;-62
2023/01/28 11:31:51;;;;;;;;;;;;;;;25.44;37.76;94530.78;5042420;28;7210;-62
2023/01/28 11:34:19;;;;;;;;;;;;;;;25.46;37.53;94533.00;5043158;28;7456;-62
2023/01/28 11:36:59;;;;;;;;;;;;;;;25.46;37.59;94533.00;5045595;28;7617;-63
2023/01/28 11:39:28;;;;;;;;;;;;;;;25.44;37.75;94530.78;5072483;28;7185;-62
2023/01/28 11:42:15;;;;;;;;;;;;;;;25.42;38.22;94530.53;5043446;28;7599;-62
2023/01/28 11:44:41;;;;;;;;;;;;;;;25.43;37.98;94532.03;5044810;28;7040;-62
2023/01/28 11:47:29;;;;;;;;;;;;;;;25.42;37.45;94527.78;5042848;28;7035;-61
2023/01/28 11:50:06;;;;;;;;;;;;;;;25.43;37.45;94527.25;5043758;28;7255;-61
2023/01/28 11:52:53;;;;;;;;;;;;;;;25.46;37.75;94531.00;5060604;28;8169;-62
2023/01/28 11:55:47;;;;;;;;;;;;;;;25.45;37.71;94535.00;5042547;28;7941;-61
2023/01/28 11:58:32;;;;;;;;;;;;;;;25.45;38.39;94535.00;5067346;28;7930;-63
2023/01/28 12:01:23;;;;;;;;;;;;;;;25.46;38.23;94525.50;5043906;28;7232;-63
2023/01/28 12:04:07;;;;;;;;;;;;;;;25.47;38.38;94532.50;5043418;28;7116;-62
2023/01/28 12:10:35;;;;;;;;;;;;;;;25.51;37.08;94521.25;4992789;28;9451;-62
2023/01/28 12:13:38;;;;;;;;;;;;;;;25.48;36.55;94516.72;4974556;28;7064;-62
2023/01/28 12:16:56;;;;;;;;;;;;;;;25.46;37.01;94522.75;4980746;28;8176;-62
2023/01/28 12:19:44;;;;;;;;;;;;;;;25.42;36.60;94527.78;4951134;29;7513;-61
2023/01/28 12:22:33;;;;;;;;;;;;;;;25.42;36.99;94527.78;4948915;28;9117;-61
2023/01/28 12:25:36;;;;;;;;;;;;;;;25.39;37.01;94520.50;4956380;28;8936;-61
2023/01/28 12:28:08;;;;;;;;;;;;;;;25.39;37.15;94532.25;4940612;29;8522;-61
2023/01/28 12:30:40;;;;;;;;;;;;;;;25.40;37.05;94525.47;4944228;29;7793;-61
2023/01/28 12:33:06;;;;;;;;;;;;;;;25.39;37.22;94529.50;4950835;28;9079;-61
2023/01/28 12:38:53;;;;;;;;;;;;;;;25.37;37.24;94521.00;4952398;28;9294;-61
2023/01/28 12:41:46;;;;;;;;;;;;;;;25.37;36.97;94521.00;4931573;29;7349;-66
2023/01/28 12:44:27;;;;;;;;;;;;;;;25.36;37.16;94513.22;4948159;28;7199;-66
2023/01/28 12:47:25;;;;;;;;;;;;;;;25.37;37.19;94525.75;4974450;28;9461;-66
2023/01/28 12:50:17;;;;;;;;;;;;;;;25.37;36.92;94525.75;4988711;28;7521;-66
2023/01/28 12:53:00;;;;;;;;;;;;;;;25.36;36.67;94514.00;4993333;28;7350;-66
2023/01/28 12:55:50;;;;;;;;;;;;;;;25.37;36.91;94520.25;5013894;28;9049;-66
2023/01/28 12:58:55;;;;;;;;;;;;;;;25.35;36.67;94525.50;5039777;28;8936;-66
2023/01/28 13:02:04;;;;;;;;;;;;;;;25.36;36.44;94519.50;5062040;28;7424;-66
2023/01/28 13:05:03;;;;;;;;;;;;;;;25.36;36.38;94524.25;4976924;28;8380;-66
2023/01/28 13:11:05;;;;;;;;;;;;;;;25.35;36.55;94528.28;4993014;28;7056;-66
2023/01/28 13:13:47;;;;;;;;;;;;;;;25.38;37.17;94538.28;4981759;28;7218;-66
2023/01/28 13:16:13;;;;;;;;;;;;;;;25.37;36.28;94529.28;4993527;28;9090;-66
2023/01/28 13:18:39;;;;;;;;;;;;;;;25.35;36.98;94531.78;4992490;28;9010;-66
2023/01/28 13:21:36;;;;;;;;;;;;;;;25.37;37.06;94536.78;4976678;28;7025;-66
2023/01/28 13:24:13;;;;;;;;;;;;;;;25.37;36.63;94531.25;4976179;28;6858;-66
2023/01/28 13:26:56;;;;;;;;;;;;;;;25.34;36.44;94532.25;4984748;28;9381;-66
2023/01/28 13:29:34;;;;;;;;;;;;;;;25.34;36.51;94541.28;4992474;28;7260;-66
2023/01/28 13:32:21;;;;;;;;;;;;;;;25.35;36.77;94537.28;4993094;28;7076;-66
2023/01/28 13:35:04;;;;;;;;;;;;;;;25.35;36.11;94547.53;4992000;28;7295;-66
2023/01/28 13:38:17;;;;;;;;;;;;;;;25.36;36.28;94551.78;4993121;28;7175;-66
2023/01/28 13:40:56;;;;;;;;;;;;;;;25.36;36.37;94552.53;4952944;28;7255;-66
2023/01/28 13:43:31;;;;;;;;;;;;;;;25.36;36.82;94565.53;4969181;28;7188;-66
2023/01/28 13:46:07;;;;;;;;;;;;;;;25.36;36.67;94558.03;4986791;28;9552;-66
2023/01/28 13:48:53;;;;;;;;;;;;;;;25.38;36.65;94568.56;4965184;28;7238;-66
2023/01/28 13:51:31;;;;;;;;;;;;;;;25.37;36.23;94573.31;4980727;28;7289;-66
2023/01/28 13:54:19;;;;;;;;;;;;;;;25.38;36.74;94574.81;4971723;28;9453;-66
2023/01/28 13:57:01;;;;;;;;;;;;;;;25.38;36.13;94577.56;4980116;28;8990;-57
2023/01/28 13:59:42;;;;;;;;;;;;;;;25.37;36.71;94576.06;4978956;28;9188;-56
2023/01/28 14:02:33;;;;;;;;;;;;;;;25.37;36.55;94578.06;4972493;28;7174;-56
2023/01/28 14:05:36;;;;;;;;;;;;;;;25.36;36.30;94574.56;4976527;28;8723;-56
2023/01/28 14:08:35;;;;;;;;;;;;;;;25.38;35.91;94576.84;4982682;28;7029;-56
2023/01/28 14:11:46;;;;;;;;;;;;;;;25.36;36.11;94587.56;4963035;28;7041;-56
2023/01/28 14:14:55;;;;;;;;;;;;;;;25.36;35.89;94582.06;4963390;28;7194;-56
2023/01/28 14:17:42;;;;;;;;;;;;;;;25.37;36.06;94591.84;4944893;28;7890;-56
2023/01/28 14:20:23;;;;;;;;;;;;;;;25.37;36.46;94587.09;4952528;28;7536;-56
2023/01/28 14:22:50;;;;;;;;;;;;;;;25.37;36.83;94591.84;4954979;28;8736;-56
2023/01/28 14:25:31;;;;;;;;;;;;;;;25.38;35.88;94596.09;4952996;28;7401;-56
2023/01/28 14:28:01;;;;;;;;;;;;;;;25.38;35.94;94596.09;4967393;28;8123;-56
2023/01/28 14:30:49;;;;;;;;;;;;;;;25.38;36.84;94601.63;4963511;28;7049;-56
2023/01/28 14:33:16;;;;;;;;;;;;;;;25.39;36.28;94603.09;4968873;28;9449;-57
2023/01/28 14:35:48;;;;;;;;;;;;;;;25.38;36.67;94610.59;4952010;28;8806;-56
2023/01/28 14:38:23;;;;;;;;;;;;;;;25.37;36.27;94609.13;4952937;28;7097;-56
2023/01/28 14:40:53;;;;;;;;;;;;;;;25.39;35.97;94616.88;4941491;28;7580;-56
2023/01/28 14:43:35;;;;;;;;;;;;;;;25.38;36.35;94616.09;4953318;28;7133;-56
2023/01/28 14:46:30;;;;;;;;;;;;;;;25.39;36.67;94608.59;4956408;28;7261;-56